메인 페이지
METAR-TAF:

METAR-TAF

공항 :

인디애나폴리스, 인디애나, 미국

인디애나폴리스 국제공항

위도: 39-43-30N, 경도: 086-16-55W, 고도: 243m

현재 날씨관측

예보는 17분 전, 18:54시(UTC)에 발표되었습니다.
13kt
온도 3°C
습도 52%
기압 1016 hPa
시정: 16.1km
고도 25000ft 상공 구름 많음

METAR: KIND 191854Z 19013KT 10SM BKN250 03/M06 A3001 RMK AO2 SLP171 T00281061

시각: 14:11 (19:11 UTC)

예보

예보는 1 시간 50분 전, 17:21시(UTC)에 발표되었습니다.
예보 대상 시간: 19일 18시부터 20일 24시까지 (UTC)
남남서12kt, 순간 최대 풍속 20kt
시정: 10km
맑음
20일 0200시부터 (UTC)
남남서10kt
시정: 10km
고도 25000ft 상공 구름 조금
20일 1300시부터 (UTC)
남서9kt
시정: 10km
고도 5000ft 상공 구름 보통
20일 1600시부터 (UTC)
남서9kt
시정: 10km
고도 1500ft 상공 구름 많음

TAF: KIND 191721Z 1918/2024 21012G20KT P6SM SKC FM200200 21010KT P6SM FEW250 WS020/23040KT FM201300 22009KT P6SM SCT050 FM201600 22009KT P6SM BKN015

4,000개 이상의 공항 관측 자료 및 예보 (METAR 및 TAF 보고).

지도상에서 검색 가능한 기상관측소가 노란 점과 빨간 점으로 표시되어 있습니다.

기상관측소 명을 보려면 표시 위로 마우스를 이동하세요.

날씨 관측과 예보를 보려면 클릭하세요.

지도 변경 : 확대하려면 엑스 표시가 있는 녹색 버튼, 축소하려면 빼기 표시가 있는 녹색 버튼, 다음 페이지의 지도를 보려면 녹색 화살표를 클릭하세요.


METAR-TAF: